Terminal Aerodrome Forecast
Issued by NWS

Home | Current Version | Previous Version | Text Only | Print | Product List | Glossary On
Versions: 1 2 3 4 5 6 7 8 9 10 11 12 13 14 15 16 17 18 19 20 21 22 23 24 25 26
000
FTUS45 KGJT 222339
TAFCNY
TAF
KCNY 222339Z 2300/2324 26008KT P6SM FEW100
     FM230200 35011KT P6SM FEW200
     FM230400 05013G21KT P6SM FEW250
     FM230900 05009KT P6SM FEW250
     FM231200 05005KT P6SM SKC=

USA.gov is the U.S. government's official web portal to all federal, state and local government web resources and services.